createdAt,value
2022-09-11T00:02:27.065Z,14.52
2022-09-11T00:04:58.412Z,15.65
2022-09-11T00:07:28.154Z,15.02
2022-09-11T00:09:57.981Z,13.80
2022-09-11T00:12:28.230Z,14.95
2022-09-11T00:14:57.934Z,14.98
2022-09-11T00:17:27.683Z,14.10
2022-09-11T00:20:00.948Z,13.82
2022-09-11T00:22:30.695Z,13.32
2022-09-11T00:25:00.522Z,13.48
2022-09-11T00:27:30.286Z,13.77
2022-09-11T00:30:00.240Z,14.65
2022-09-11T00:32:30.032Z,14.50
2022-09-11T00:35:01.621Z,14.80
2022-09-11T00:37:31.389Z,13.35
2022-09-11T00:40:01.250Z,14.02
2022-09-11T00:42:31.380Z,14.25
2022-09-11T00:45:06.580Z,14.30
2022-09-11T00:50:15.088Z,15.57
2022-09-11T00:52:53.200Z,15.00
2022-09-11T00:55:27.992Z,15.25
2022-09-11T00:58:01.355Z,13.95
2022-09-11T01:00:31.489Z,14.75
2022-09-11T01:03:03.234Z,14.65
2022-09-11T01:05:38.110Z,13.55
2022-09-11T01:08:08.577Z,14.02
2022-09-11T01:10:51.556Z,14.82
2022-09-11T01:13:30.779Z,14.55
2022-09-11T01:16:10.703Z,13.57
2022-09-11T01:18:47.604Z,13.55
2022-09-11T01:21:39.007Z,14.65
2022-09-11T01:24:24.793Z,12.23
2022-09-11T01:27:27.206Z,12.75
2022-09-11T01:30:02.607Z,13.15
2022-09-11T01:32:40.518Z,12.70
2022-09-11T01:35:17.341Z,11.95
2022-09-11T01:37:53.848Z,12.68
2022-09-11T01:40:28.368Z,12.60
2022-09-11T01:43:06.201Z,13.00
2022-09-11T01:45:38.364Z,12.02
2022-09-11T01:48:09.843Z,11.63
2022-09-11T01:50:45.891Z,12.02
2022-09-11T01:53:19.179Z,12.23
2022-09-11T01:55:55.516Z,12.27
2022-09-11T01:58:29.925Z,14.05
2022-09-11T02:01:06.233Z,12.45
2022-09-11T02:03:39.338Z,12.43
2022-09-11T02:06:15.225Z,14.40
2022-09-11T02:08:50.201Z,12.70
2022-09-11T02:11:20.996Z,12.85
2022-09-11T02:13:58.432Z,13.13
2022-09-11T02:16:38.790Z,12.50
2022-09-11T02:19:13.732Z,12.70
2022-09-11T02:21:45.015Z,13.35
2022-09-11T02:24:15.762Z,13.10
2022-09-11T02:26:49.210Z,14.02
2022-09-11T02:29:21.119Z,17.13
2022-09-11T02:31:52.228Z,12.95
2022-09-11T02:34:26.946Z,12.23
2022-09-11T02:37:17.008Z,13.00
2022-09-11T02:40:06.198Z,12.75
2022-09-11T02:42:50.783Z,12.05
2022-09-11T02:45:35.664Z,12.75
2022-09-11T02:48:24.487Z,12.85
2022-09-11T02:51:04.087Z,12.65
2022-09-11T02:53:39.477Z,12.27
2022-09-11T02:56:16.897Z,13.45
2022-09-11T02:58:55.554Z,13.18
2022-09-11T03:01:26.695Z,12.27
2022-09-11T03:03:56.529Z,12.55
2022-09-11T03:06:28.183Z,12.68
2022-09-11T03:08:58.656Z,11.45
2022-09-11T03:11:29.028Z,11.50
2022-09-11T03:13:58.943Z,13.00
2022-09-11T03:16:30.209Z,12.82
2022-09-11T03:19:00.172Z,12.35
2022-09-11T03:21:30.192Z,11.40
2022-09-11T03:24:00.021Z,10.55
2022-09-11T03:26:30.030Z,11.23
2022-09-11T03:29:00.172Z,10.65
2022-09-11T03:31:31.646Z,11.35
2022-09-11T03:34:01.534Z,12.43
2022-09-11T03:36:31.361Z,11.50
2022-09-11T03:39:01.319Z,11.10
2022-09-11T03:41:31.115Z,11.32
2022-09-11T03:44:02.073Z,9.80
2022-09-11T03:46:35.166Z,10.68
2022-09-11T03:49:06.118Z,10.35
2022-09-11T03:51:35.932Z,10.35
2022-09-11T03:54:06.264Z,10.73
2022-09-11T03:56:36.696Z,10.35
2022-09-11T03:59:06.424Z,10.00
2022-09-11T04:01:37.666Z,9.50
2022-09-11T04:04:07.523Z,10.35
2022-09-11T04:06:37.634Z,9.35
2022-09-11T04:09:07.393Z,10.68
2022-09-11T04:11:38.934Z,9.90
2022-09-11T04:14:09.237Z,13.90
2022-09-11T04:16:40.764Z,11.35
2022-09-11T04:19:11.359Z,8.98
2022-09-11T04:21:42.321Z,10.05
2022-09-11T04:24:12.269Z,9.45
2022-09-11T04:26:42.285Z,10.02
2022-09-11T04:29:12.015Z,9.00
2022-09-11T04:31:43.365Z,9.45
2022-09-11T04:34:13.196Z,10.18
2022-09-11T04:36:43.713Z,10.80
2022-09-11T04:39:13.506Z,10.15
2022-09-11T04:41:44.295Z,10.43
2022-09-11T04:44:16.036Z,10.35
2022-09-11T04:46:48.315Z,10.45
2022-09-11T04:49:18.335Z,11.90
2022-09-11T04:51:48.134Z,10.32
2022-09-11T04:54:21.248Z,10.57
2022-09-11T04:56:51.735Z,10.67
2022-09-11T04:59:24.261Z,11.35
2022-09-11T05:01:55.652Z,11.77
2022-09-11T05:04:26.389Z,12.77
2022-09-11T05:06:57.104Z,13.15
2022-09-11T05:09:27.714Z,17.55
2022-09-11T05:11:57.687Z,18.65
2022-09-11T05:14:28.217Z,20.23
2022-09-11T05:16:59.413Z,15.00
2022-09-11T05:19:29.356Z,14.20
2022-09-11T05:21:59.560Z,12.38
2022-09-11T05:24:29.713Z,11.60
2022-09-11T05:26:59.996Z,11.40
2022-09-11T05:29:32.577Z,10.60
2022-09-11T05:32:04.151Z,11.30
2022-09-11T05:34:34.192Z,11.20
2022-09-11T05:37:22.097Z,11.20
2022-09-11T05:39:52.878Z,10.40
2022-09-11T05:42:22.757Z,10.60
2022-09-11T05:44:52.657Z,10.93
2022-09-11T05:47:24.168Z,10.93
2022-09-11T05:49:54.104Z,10.50
2022-09-11T05:52:25.213Z,15.40
2022-09-11T05:54:55.057Z,13.82
2022-09-11T05:57:25.149Z,12.40
2022-09-11T05:59:55.208Z,11.98
2022-09-11T06:02:26.755Z,10.43
2022-09-11T06:04:56.872Z,10.35
2022-09-11T06:07:27.405Z,9.88
2022-09-11T06:10:02.366Z,9.95
2022-09-11T06:12:32.864Z,9.85
2022-09-11T06:15:02.918Z,9.52
2022-09-11T06:17:34.236Z,9.20
2022-09-11T06:20:04.829Z,9.27
2022-09-11T06:22:37.673Z,10.40
2022-09-11T06:25:09.342Z,9.83
2022-09-11T06:27:44.135Z,8.10
2022-09-11T06:30:15.155Z,8.90
2022-09-11T06:32:49.445Z,9.02
2022-09-11T06:35:19.163Z,8.73
2022-09-11T06:37:48.910Z,8.65
2022-09-11T06:40:19.100Z,8.18
2022-09-11T06:42:48.967Z,9.57
2022-09-11T06:45:19.169Z,8.80
2022-09-11T06:47:50.295Z,10.18
2022-09-11T06:50:20.105Z,8.80
2022-09-11T06:52:52.151Z,8.10
2022-09-11T06:55:22.468Z,8.50
2022-09-11T06:57:52.345Z,8.30
2022-09-11T07:00:22.123Z,8.48
2022-09-11T07:02:54.232Z,8.02
2022-09-11T07:05:24.656Z,7.82
2022-09-11T07:07:55.493Z,9.40
2022-09-11T07:10:26.022Z,9.20
2022-09-11T07:12:56.863Z,8.77
2022-09-11T07:15:26.588Z,8.75
2022-09-11T07:17:58.038Z,9.90
2022-09-11T07:20:27.812Z,8.93
2022-09-11T07:22:58.544Z,8.15
2022-09-11T07:25:28.466Z,8.65
2022-09-11T07:27:58.360Z,9.32
2022-09-11T07:30:28.217Z,8.90
2022-09-11T07:32:59.407Z,8.57
2022-09-11T07:35:29.237Z,10.02
2022-09-11T07:37:59.731Z,14.18
2022-09-11T07:40:31.367Z,9.02
2022-09-11T07:43:01.833Z,8.18
2022-09-11T07:45:32.421Z,8.18
2022-09-11T07:48:03.865Z,8.18
2022-09-11T07:50:34.186Z,9.07
2022-09-11T07:53:04.073Z,8.18
2022-09-11T07:55:35.477Z,8.20
2022-09-11T07:58:05.624Z,8.60
2022-09-11T08:00:37.250Z,8.85
2022-09-11T08:03:08.626Z,8.32
2022-09-11T08:05:38.394Z,8.52
2022-09-11T08:08:08.229Z,8.75
2022-09-11T08:10:41.117Z,8.25
2022-09-11T08:13:12.605Z,7.90
2022-09-11T08:15:47.586Z,8.52
2022-09-11T08:18:19.155Z,8.10
2022-09-11T08:20:49.123Z,8.13
2022-09-11T08:23:18.981Z,8.25
2022-09-11T08:25:50.992Z,7.05
2022-09-11T08:28:20.731Z,8.10
2022-09-11T08:30:50.593Z,13.10
2022-09-11T08:33:21.816Z,7.63
2022-09-11T08:35:51.863Z,7.20
2022-09-11T08:38:24.531Z,7.25
2022-09-11T08:40:55.278Z,6.70
2022-09-11T08:43:32.407Z,6.75
2022-09-11T08:46:06.276Z,6.53
2022-09-11T08:48:49.119Z,7.28
2022-09-11T08:51:19.425Z,5.90
2022-09-11T08:53:49.766Z,6.90
2022-09-11T08:56:23.605Z,6.35
2022-09-11T08:59:11.230Z,6.70
2022-09-11T09:01:48.172Z,6.35
2022-09-11T09:04:39.437Z,5.72
2022-09-11T09:07:18.562Z,5.32
2022-09-11T09:10:16.449Z,5.82
2022-09-11T09:12:54.319Z,6.75
2022-09-11T09:15:39.724Z,10.52
2022-09-11T09:18:14.746Z,6.80
2022-09-11T09:20:51.328Z,6.47
2022-09-11T09:23:25.643Z,5.57
2022-09-11T09:25:57.849Z,6.22
2022-09-11T09:28:35.994Z,6.72
2022-09-11T09:31:09.913Z,6.18
2022-09-11T09:33:45.143Z,7.05
2022-09-11T09:36:20.456Z,6.55
2022-09-11T09:38:50.617Z,6.43
2022-09-11T09:41:50.694Z,5.95
2022-09-11T09:44:30.436Z,5.38
2022-09-11T09:47:01.108Z,5.60
2022-09-11T09:49:34.317Z,6.00
2022-09-11T09:52:19.203Z,5.72
2022-09-11T09:54:56.089Z,6.45
2022-09-11T09:57:31.332Z,5.55
2022-09-11T10:00:06.461Z,5.80
2022-09-11T10:02:41.059Z,6.30
2022-09-11T10:05:20.716Z,5.97
2022-09-11T10:07:53.875Z,5.30
2022-09-11T10:10:30.079Z,5.32
2022-09-11T10:13:18.709Z,5.90
2022-09-11T10:15:50.659Z,5.90
2022-09-11T10:18:42.500Z,6.20
2022-09-11T10:21:21.213Z,6.25
2022-09-11T10:23:54.809Z,5.38
2022-09-11T10:26:30.072Z,7.05
2022-09-11T10:29:07.767Z,6.90
2022-09-11T10:31:41.173Z,5.40
2022-09-11T10:36:54.044Z,5.13
2022-09-11T10:39:27.754Z,5.60
2022-09-11T10:44:30.801Z,4.93
2022-09-11T10:47:06.497Z,5.45
2022-09-11T10:49:36.471Z,5.07
2022-09-11T10:52:18.862Z,5.40
2022-09-11T10:55:00.179Z,5.55
2022-09-11T10:57:35.060Z,5.53
2022-09-11T11:00:13.203Z,10.85
2022-09-11T11:02:46.688Z,9.43
2022-09-11T11:05:22.600Z,5.63
2022-09-11T11:08:15.185Z,9.30
2022-09-11T11:11:04.059Z,7.20
2022-09-11T11:13:45.332Z,8.35
2022-09-11T11:16:23.104Z,5.07
2022-09-11T11:19:06.779Z,5.97
2022-09-11T11:21:52.304Z,5.50
2022-09-11T11:24:36.765Z,4.35
2022-09-11T11:27:29.998Z,4.20
2022-09-11T11:30:17.809Z,4.05
2022-09-11T11:33:17.370Z,3.85
2022-09-11T11:35:57.905Z,4.38
2022-09-11T11:38:33.459Z,3.92
2022-09-11T11:41:09.784Z,4.22
2022-09-11T11:43:43.545Z,3.50
2022-09-11T11:46:19.815Z,4.05
2022-09-11T11:48:54.785Z,23.63
2022-09-11T11:51:28.091Z,16.48
2022-09-11T11:54:05.697Z,5.85
2022-09-11T11:56:41.165Z,8.63
2022-09-11T11:59:16.863Z,6.25
2022-09-11T12:01:57.197Z,15.18
2022-09-11T12:04:42.173Z,6.10
2022-09-11T12:07:17.259Z,6.25
2022-09-11T12:09:49.474Z,3.25
2022-09-11T12:12:21.043Z,3.58
2022-09-11T12:14:55.059Z,3.55
2022-09-11T12:17:28.441Z,3.97
2022-09-11T12:22:50.311Z,2.88
2022-09-11T12:25:51.144Z,3.50
2022-09-11T12:28:26.068Z,3.50
2022-09-11T12:31:02.932Z,3.88
2022-09-11T12:33:56.314Z,3.75
2022-09-11T12:36:36.127Z,3.40
2022-09-11T12:39:18.577Z,3.53
2022-09-11T12:41:49.208Z,3.42
2022-09-11T12:44:34.035Z,4.22
2022-09-11T12:47:16.432Z,3.85
2022-09-11T12:49:55.800Z,3.40
2022-09-11T12:52:36.864Z,3.92
2022-09-11T12:55:27.845Z,3.95
2022-09-11T12:58:02.497Z,3.85
2022-09-11T13:00:38.380Z,4.03
2022-09-11T13:03:18.980Z,3.65
2022-09-11T13:05:55.412Z,3.38
2022-09-11T13:08:28.872Z,4.40
2022-09-11T13:11:31.862Z,4.18
2022-09-11T13:14:02.167Z,4.35
2022-09-11T13:16:34.853Z,4.60
2022-09-11T13:19:14.602Z,4.53
2022-09-11T13:21:45.918Z,4.75
2022-09-11T13:24:25.395Z,4.60
2022-09-11T13:26:59.783Z,4.43
2022-09-11T13:29:32.501Z,4.53
2022-09-11T13:32:11.404Z,4.43
2022-09-11T13:34:47.086Z,4.72
2022-09-11T13:37:31.270Z,4.63
2022-09-11T13:40:04.182Z,4.60
2022-09-11T13:42:35.253Z,4.85
2022-09-11T13:45:06.852Z,4.57
2022-09-11T13:47:42.303Z,4.65
2022-09-11T13:50:15.538Z,4.45
2022-09-11T13:52:46.977Z,5.45
2022-09-11T13:55:20.228Z,4.70
2022-09-11T14:00:55.431Z,5.28
2022-09-11T14:03:28.815Z,4.07
2022-09-11T14:08:34.376Z,8.10
2022-09-11T14:13:46.041Z,5.07
2022-09-11T14:16:25.362Z,4.60
2022-09-11T14:19:00.254Z,4.50
2022-09-11T14:21:35.520Z,5.10
2022-09-11T14:24:25.326Z,3.78
2022-09-11T14:26:58.277Z,3.90
2022-09-11T14:29:30.852Z,3.60
2022-09-11T14:32:31.175Z,4.03
2022-09-11T14:35:01.786Z,4.40
2022-09-11T14:37:34.643Z,4.15
2022-09-11T14:40:07.465Z,4.72
2022-09-11T14:42:37.872Z,4.73
2022-09-11T14:45:10.598Z,4.90
2022-09-11T14:47:40.545Z,4.20
2022-09-11T14:50:13.228Z,4.30
2022-09-11T14:52:44.774Z,5.07
2022-09-11T14:55:15.826Z,6.03
2022-09-11T14:57:46.660Z,4.53
2022-09-11T15:00:18.272Z,4.18
2022-09-11T15:02:48.376Z,8.00
2022-09-11T15:05:22.960Z,5.70
2022-09-11T15:07:54.363Z,14.48
2022-09-11T15:10:24.236Z,7.38
2022-09-11T15:12:55.864Z,3.90
2022-09-11T15:15:27.600Z,4.22
2022-09-11T15:17:58.171Z,6.72
2022-09-11T15:20:28.546Z,5.97
2022-09-11T15:23:00.814Z,7.78
2022-09-11T15:25:32.755Z,5.07
2022-09-11T15:28:02.800Z,3.97
2022-09-11T15:30:32.544Z,5.38
2022-09-11T15:33:02.288Z,5.72
2022-09-11T15:35:33.021Z,5.80
2022-09-11T15:38:05.649Z,5.60
2022-09-11T15:40:36.636Z,5.60
2022-09-11T15:43:06.776Z,4.63
2022-09-11T15:45:43.707Z,4.38
2022-09-11T15:48:14.764Z,4.18
2022-09-11T15:50:45.523Z,4.57
2022-09-11T15:53:16.687Z,5.88
2022-09-11T15:55:46.638Z,4.55
2022-09-11T15:58:16.620Z,4.70
2022-09-11T16:00:46.956Z,5.20
2022-09-11T16:03:16.696Z,5.22
2022-09-11T16:05:46.483Z,4.55
2022-09-11T16:08:17.918Z,4.82
2022-09-11T16:10:48.024Z,4.55
2022-09-11T16:13:18.389Z,4.72
2022-09-11T16:15:49.680Z,4.35
2022-09-11T16:18:19.777Z,4.78
2022-09-11T16:20:58.057Z,4.70
2022-09-11T16:23:29.412Z,4.38
2022-09-11T16:26:04.065Z,5.28
2022-09-11T16:28:34.919Z,5.05
2022-09-11T16:31:06.812Z,4.90
2022-09-11T16:33:40.813Z,4.45
2022-09-11T16:36:17.097Z,5.43
2022-09-11T16:38:50.269Z,5.30
2022-09-11T16:41:23.612Z,5.88
2022-09-11T16:43:55.062Z,5.20
2022-09-11T16:46:27.096Z,5.13
2022-09-11T16:49:01.627Z,4.70
2022-09-11T16:51:31.897Z,4.95
2022-09-11T16:54:04.150Z,5.32
2022-09-11T16:56:34.398Z,6.45
2022-09-11T16:59:04.351Z,5.28
2022-09-11T17:01:34.531Z,4.85
2022-09-11T17:04:04.898Z,5.50
2022-09-11T17:06:34.890Z,4.82
2022-09-11T17:09:06.314Z,5.53
2022-09-11T17:11:37.192Z,5.75
2022-09-11T17:14:08.221Z,5.53
2022-09-11T17:16:39.715Z,6.25
2022-09-11T17:19:10.895Z,5.78
2022-09-11T17:21:41.444Z,6.82
2022-09-11T17:24:13.186Z,5.43
2022-09-11T17:26:43.075Z,6.28
2022-09-11T17:29:13.112Z,5.88
2022-09-11T17:31:42.990Z,9.63
2022-09-11T17:34:12.811Z,5.68
2022-09-11T17:36:43.335Z,5.57
2022-09-11T17:39:14.559Z,6.25
2022-09-11T17:41:44.974Z,5.38
2022-09-11T17:44:15.564Z,6.00
2022-09-11T17:46:47.239Z,5.45
2022-09-11T17:49:17.257Z,6.18
2022-09-11T17:51:47.213Z,5.40
2022-09-11T17:54:18.920Z,5.75
2022-09-11T17:56:48.914Z,6.05
2022-09-11T17:59:18.776Z,5.40
2022-09-11T18:01:48.995Z,6.07
2022-09-11T18:04:18.964Z,6.03
2022-09-11T18:06:48.886Z,6.07
2022-09-11T18:09:20.559Z,6.30
2022-09-11T18:11:53.920Z,6.43
2022-09-11T18:14:23.715Z,5.78
2022-09-11T18:16:53.358Z,5.63
2022-09-11T18:19:24.643Z,5.43
2022-09-11T18:21:55.174Z,5.43
2022-09-11T18:24:29.819Z,5.47
2022-09-11T18:27:01.193Z,5.53
2022-09-11T18:29:31.153Z,5.57
2022-09-11T18:32:01.101Z,5.25
2022-09-11T18:34:31.330Z,5.50
2022-09-11T18:37:01.101Z,5.75
2022-09-11T18:39:33.898Z,5.57
2022-09-11T18:42:06.286Z,7.15
2022-09-11T18:44:36.831Z,6.55
2022-09-11T18:47:07.364Z,6.25
2022-09-11T18:49:37.850Z,6.18
2022-09-11T18:52:08.843Z,6.32
2022-09-11T18:54:40.049Z,5.47
2022-09-11T18:57:10.067Z,6.28
2022-09-11T18:59:40.010Z,5.55
2022-09-11T19:02:10.882Z,6.00
2022-09-11T19:04:41.202Z,5.70
2022-09-11T19:07:12.001Z,5.60
2022-09-11T19:09:46.001Z,5.65
2022-09-11T19:12:16.848Z,5.90
2022-09-11T19:14:47.121Z,5.75
2022-09-11T19:17:16.841Z,6.20
2022-09-11T19:19:46.950Z,5.35
2022-09-11T19:22:16.966Z,6.47
2022-09-11T19:24:48.192Z,5.88
2022-09-11T19:27:18.255Z,5.90
2022-09-11T19:29:49.000Z,5.70
2022-09-11T19:32:18.991Z,4.93
2022-09-11T19:34:48.904Z,5.18
2022-09-11T19:37:20.208Z,6.50
2022-09-11T19:39:52.049Z,6.97
2022-09-11T19:42:21.801Z,7.25
2022-09-11T19:44:55.715Z,5.85
2022-09-11T19:47:26.488Z,6.80
2022-09-11T19:49:56.225Z,5.65
2022-09-11T19:52:29.711Z,5.47
2022-09-11T19:55:03.948Z,4.60
2022-09-11T19:57:34.884Z,4.93
2022-09-11T20:00:05.629Z,6.07
2022-09-11T20:02:35.670Z,4.88
2022-09-11T20:05:05.744Z,5.63
2022-09-11T20:07:37.789Z,5.13
2022-09-11T20:10:10.570Z,5.70
2022-09-11T20:12:40.500Z,6.00
2022-09-11T20:15:11.568Z,6.07
2022-09-11T20:17:44.444Z,5.15
2022-09-11T20:20:14.832Z,4.60
2022-09-11T20:22:44.699Z,5.38
2022-09-11T20:25:16.013Z,5.40
2022-09-11T20:27:45.740Z,5.47
2022-09-11T20:30:15.859Z,5.65
2022-09-11T20:32:45.697Z,5.30
2022-09-11T20:35:15.919Z,5.68
2022-09-11T20:37:45.640Z,5.43
2022-09-11T20:40:17.018Z,5.22
2022-09-11T20:42:48.176Z,5.32
2022-09-11T20:45:18.137Z,5.35
2022-09-11T20:47:48.064Z,5.50
2022-09-11T20:50:18.238Z,5.30
2022-09-11T20:52:47.944Z,4.97
2022-09-11T20:55:19.184Z,5.68
2022-09-11T20:57:48.929Z,6.18
2022-09-11T21:00:18.694Z,5.05
2022-09-11T21:02:48.527Z,5.43
2022-09-11T21:05:18.401Z,4.78
2022-09-11T21:07:48.304Z,5.28
2022-09-11T21:10:19.436Z,4.95
2022-09-11T21:12:49.186Z,5.65
2022-09-11T21:15:18.917Z,5.97
2022-09-11T21:17:50.029Z,6.32
2022-09-11T21:20:19.890Z,6.35
2022-09-11T21:22:49.591Z,6.95
2022-09-11T21:25:20.964Z,7.18
2022-09-11T21:27:50.693Z,7.25
2022-09-11T21:30:21.775Z,7.57
2022-09-11T21:32:53.201Z,7.10
2022-09-11T21:35:23.183Z,7.60
2022-09-11T21:37:52.920Z,8.40
2022-09-11T21:40:24.489Z,9.40
2022-09-11T21:42:54.217Z,9.13
2022-09-11T21:45:24.296Z,9.20
2022-09-11T21:47:54.047Z,9.55
2022-09-11T21:50:24.172Z,9.65
2022-09-11T21:52:54.955Z,9.38
2022-09-11T21:55:28.082Z,9.10
2022-09-11T21:57:59.170Z,8.90
2022-09-11T22:00:28.982Z,9.88
2022-09-11T22:02:59.306Z,8.68
2022-09-11T22:05:30.005Z,9.68
2022-09-11T22:08:01.754Z,8.55
2022-09-11T22:10:32.995Z,9.65
2022-09-11T22:13:03.536Z,9.82
2022-09-11T22:15:33.391Z,9.95
2022-09-11T22:18:03.192Z,8.07
2022-09-11T22:20:33.258Z,8.93
2022-09-11T22:23:03.267Z,8.68
2022-09-11T22:25:36.959Z,8.60
2022-09-11T22:28:07.066Z,9.55
2022-09-11T22:30:37.161Z,8.45
2022-09-11T22:33:06.970Z,8.63
2022-09-11T22:35:37.239Z,8.48
2022-09-11T22:38:07.106Z,7.95
2022-09-11T22:40:38.727Z,8.20
2022-09-11T22:43:08.545Z,8.77
2022-09-11T22:45:38.417Z,8.25
2022-09-11T22:48:08.383Z,8.40
2022-09-11T22:50:38.432Z,8.70
2022-09-11T22:53:08.178Z,8.23
2022-09-11T22:55:44.187Z,7.63
2022-09-11T22:58:14.721Z,7.88
2022-09-11T23:00:45.724Z,8.00
2022-09-11T23:03:15.621Z,9.05
2022-09-11T23:06:02.760Z,8.27
2022-09-11T23:08:38.903Z,8.23
2022-09-11T23:11:11.526Z,8.18
2022-09-11T23:13:41.418Z,8.75
2022-09-11T23:16:15.678Z,8.15
2022-09-11T23:18:47.332Z,8.07
2022-09-11T23:21:17.925Z,8.25
2022-09-11T23:23:54.262Z,9.68
2022-09-11T23:26:27.081Z,7.63
2022-09-11T23:28:56.830Z,7.32
2022-09-11T23:31:29.142Z,6.80
2022-09-11T23:34:00.818Z,7.28
2022-09-11T23:36:32.017Z,7.43
2022-09-11T23:39:02.741Z,6.82
2022-09-11T23:41:34.025Z,6.88
2022-09-11T23:44:04.487Z,6.50
2022-09-11T23:46:34.815Z,7.45
2022-09-11T23:49:06.322Z,7.03
2022-09-11T23:51:36.118Z,6.95
2022-09-11T23:54:05.988Z,7.55
2022-09-11T23:56:37.099Z,7.53
2022-09-11T23:59:07.577Z,7.38
